createdAt,value
2023-04-01T00:00:59.450Z,0.60
2023-04-01T00:03:45.429Z,0.57
2023-04-01T00:06:31.490Z,0.50
2023-04-01T00:09:16.817Z,0.63
2023-04-01T00:12:02.187Z,0.77
2023-04-01T00:14:47.074Z,0.57
2023-04-01T00:17:32.587Z,0.60
2023-04-01T00:20:18.025Z,0.70
2023-04-01T00:23:04.139Z,0.60
2023-04-01T00:25:50.361Z,0.60
2023-04-01T00:28:36.902Z,0.60
2023-04-01T00:31:21.976Z,0.60
2023-04-01T00:34:07.390Z,0.80
2023-04-01T00:36:53.647Z,0.70
2023-04-01T00:39:39.559Z,0.60
2023-04-01T00:42:24.964Z,0.63
2023-04-01T00:45:28.770Z,0.53
2023-04-01T00:48:31.942Z,0.60
2023-04-01T00:51:21.273Z,0.47
2023-04-01T00:54:08.712Z,0.70
2023-04-01T00:56:59.337Z,0.53
2023-04-01T00:59:48.476Z,0.70
2023-04-01T01:02:34.266Z,0.50
2023-04-01T01:05:34.211Z,0.80
2023-04-01T01:08:53.394Z,0.67
2023-04-01T01:11:48.590Z,0.67
2023-04-01T01:14:49.180Z,0.50
2023-04-01T01:17:43.302Z,0.70
2023-04-01T01:20:47.765Z,0.40
2023-04-01T01:24:04.731Z,0.67
2023-04-01T01:26:59.262Z,0.70
2023-04-01T01:29:50.447Z,0.63
2023-04-01T01:33:01.802Z,0.67
2023-04-01T01:35:54.985Z,0.50
2023-04-01T01:38:40.965Z,0.50
2023-04-01T01:41:27.939Z,0.40
2023-04-01T01:44:16.236Z,0.50
2023-04-01T01:47:02.204Z,0.67
2023-04-01T01:49:48.976Z,0.60
2023-04-01T01:52:35.939Z,0.50
2023-04-01T01:55:34.330Z,0.57
2023-04-01T01:58:25.596Z,0.80
2023-04-01T02:01:29.404Z,0.50
2023-04-01T02:04:20.021Z,0.40
2023-04-01T02:07:09.586Z,0.77
2023-04-01T02:09:55.238Z,0.40
2023-04-01T02:12:45.724Z,0.63
2023-04-01T02:15:34.592Z,0.40
2023-04-01T02:18:21.529Z,0.60
2023-04-01T02:21:08.488Z,0.40
2023-04-01T02:23:57.297Z,0.57
2023-04-01T02:26:43.021Z,0.43
2023-04-01T02:29:28.636Z,0.60
2023-04-01T02:32:15.535Z,0.60
2023-04-01T02:35:04.150Z,0.60
2023-04-01T02:37:52.887Z,0.47
2023-04-01T02:40:49.232Z,0.50
2023-04-01T02:43:34.356Z,0.70
2023-04-01T02:46:20.135Z,0.30
2023-04-01T02:49:06.325Z,0.40
2023-04-01T02:51:52.804Z,0.60
2023-04-01T02:54:37.728Z,0.40
2023-04-01T02:57:23.351Z,0.60
2023-04-01T03:00:12.167Z,0.57
2023-04-01T03:02:57.849Z,0.53
2023-04-01T03:05:43.101Z,0.60
2023-04-01T03:08:28.493Z,0.50
2023-04-01T03:11:14.432Z,0.60
2023-04-01T03:13:59.589Z,0.60
2023-04-01T03:16:44.641Z,0.47
2023-04-01T03:19:30.648Z,0.63
2023-04-01T03:22:17.172Z,0.40
2023-04-01T03:25:03.878Z,0.60
2023-04-01T03:27:49.496Z,0.50
2023-04-01T03:30:35.351Z,0.50
2023-04-01T03:33:20.564Z,0.40
2023-04-01T03:36:07.467Z,0.53
2023-04-01T03:38:52.852Z,0.40
2023-04-01T03:41:44.306Z,0.50
2023-04-01T03:44:34.547Z,0.50
2023-04-01T03:47:20.121Z,0.70
2023-04-01T03:50:06.736Z,0.73
2023-04-01T03:52:52.083Z,0.50
2023-04-01T03:55:38.483Z,0.53
2023-04-01T03:58:23.820Z,0.60
2023-04-01T04:01:21.830Z,0.50
2023-04-01T04:04:13.819Z,0.63
2023-04-01T04:06:59.417Z,0.50
2023-04-01T04:09:45.429Z,0.50
2023-04-01T04:12:30.468Z,0.53
2023-04-01T04:15:16.062Z,1.00
2023-04-01T04:18:01.492Z,0.57
2023-04-01T04:20:52.093Z,0.60
2023-04-01T04:23:38.227Z,0.67
2023-04-01T04:26:23.437Z,0.60
2023-04-01T04:29:15.221Z,0.60
2023-04-01T04:32:01.077Z,0.40
2023-04-01T04:34:46.780Z,0.50
2023-04-01T04:37:32.415Z,0.60
2023-04-01T04:40:17.856Z,0.60
2023-04-01T04:43:03.316Z,0.50
2023-04-01T04:45:48.546Z,0.43
2023-04-01T04:48:34.492Z,0.53
2023-04-01T04:51:21.142Z,0.40
2023-04-01T04:54:07.285Z,0.40
2023-04-01T04:57:06.001Z,0.43
2023-04-01T04:59:57.086Z,0.40
2023-04-01T05:03:12.987Z,0.50
2023-04-01T05:05:58.561Z,0.43
2023-04-01T05:08:45.602Z,0.30
2023-04-01T05:11:31.073Z,0.40
2023-04-01T05:14:18.819Z,0.60
2023-04-01T05:17:13.744Z,0.60
2023-04-01T05:19:59.535Z,0.40
2023-04-01T05:22:45.406Z,0.40
2023-04-01T05:25:30.747Z,0.33
2023-04-01T05:28:17.241Z,0.50
2023-04-01T05:31:06.417Z,0.40
2023-04-01T05:33:57.471Z,0.50
2023-04-01T05:36:43.740Z,0.30
2023-04-01T05:39:29.333Z,0.40
2023-04-01T05:42:14.689Z,0.47
2023-04-01T05:45:00.592Z,0.57
2023-04-01T05:48:08.591Z,0.30
2023-04-01T05:50:58.642Z,0.47
2023-04-01T05:53:44.223Z,0.57
2023-04-01T05:56:29.444Z,0.40
2023-04-01T05:59:15.702Z,0.70
2023-04-01T06:02:01.159Z,0.53
2023-04-01T06:04:46.963Z,0.60
2023-04-01T06:07:32.104Z,0.50
2023-04-01T06:10:20.661Z,0.40
2023-04-01T06:13:38.957Z,0.50
2023-04-01T06:17:02.733Z,0.53
2023-04-01T06:20:12.606Z,0.50
2023-04-01T06:23:28.548Z,0.33
2023-04-01T06:26:23.207Z,0.53
2023-04-01T06:29:33.052Z,0.50
2023-04-01T06:32:55.855Z,0.43
2023-04-01T06:35:50.469Z,0.47
2023-04-01T06:38:44.439Z,0.40
2023-04-01T06:41:45.994Z,0.30
2023-04-01T06:44:45.338Z,0.70
2023-04-01T06:48:14.108Z,0.40
2023-04-01T06:51:24.502Z,0.50
2023-04-01T06:55:10.347Z,0.40
2023-04-01T06:58:31.644Z,0.40
2023-04-01T07:01:28.932Z,0.63
2023-04-01T07:04:27.142Z,0.40
2023-04-01T07:07:37.599Z,0.30
2023-04-01T07:10:36.939Z,0.30
2023-04-01T07:13:49.152Z,0.30
2023-04-01T07:16:48.934Z,0.37
2023-04-01T07:19:53.713Z,0.30
2023-04-01T07:22:46.853Z,0.50
2023-04-01T07:26:08.043Z,0.70
2023-04-01T07:28:54.892Z,0.40
2023-04-01T07:32:18.545Z,0.50
2023-04-01T07:35:39.589Z,0.70
2023-04-01T07:38:50.886Z,0.43
2023-04-01T07:42:05.789Z,0.63
2023-04-01T07:45:23.976Z,0.47
2023-04-01T07:48:27.910Z,0.43
2023-04-01T07:51:32.624Z,0.53
2023-04-01T07:54:29.125Z,0.50
2023-04-01T07:57:28.387Z,0.40
2023-04-01T08:00:41.147Z,0.60
2023-04-01T08:04:09.720Z,0.57
2023-04-01T08:07:11.056Z,0.40
2023-04-01T08:10:24.293Z,0.30
2023-04-01T08:13:45.289Z,0.33
2023-04-01T08:17:08.477Z,0.33
2023-04-01T08:20:37.761Z,0.50
2023-04-01T08:23:27.665Z,0.40
2023-04-01T08:26:24.475Z,0.50
2023-04-01T08:29:16.040Z,0.47
2023-04-01T08:32:04.206Z,0.50
2023-04-01T08:35:21.464Z,0.63
2023-04-01T08:38:18.535Z,0.40
2023-04-01T08:41:19.242Z,0.43
2023-04-01T08:44:45.584Z,0.63
2023-04-01T08:47:51.235Z,0.70
2023-04-01T08:51:13.384Z,0.30
2023-04-01T08:54:10.298Z,0.57
2023-04-01T08:56:58.297Z,0.50
2023-04-01T08:59:57.305Z,0.20
2023-04-01T09:03:45.528Z,0.37
2023-04-01T09:06:49.063Z,0.33
2023-04-01T09:09:53.092Z,0.50
2023-04-01T09:12:57.258Z,0.63
2023-04-01T09:16:13.836Z,0.60
2023-04-01T09:19:16.049Z,0.57
2023-04-01T09:22:34.094Z,0.60
2023-04-01T09:25:31.962Z,0.60
2023-04-01T09:28:35.502Z,0.50
2023-04-01T09:31:30.461Z,0.50
2023-04-01T09:34:54.236Z,0.40
2023-04-01T09:37:47.917Z,0.50
2023-04-01T09:41:18.234Z,0.43
2023-04-01T09:44:34.643Z,0.63
2023-04-01T09:47:55.437Z,0.60
2023-04-01T09:51:06.168Z,0.60
2023-04-01T09:54:33.358Z,0.50
2023-04-01T09:57:45.520Z,0.43
2023-04-01T10:01:07.220Z,0.60
2023-04-01T10:04:07.975Z,0.60
2023-04-01T10:07:21.170Z,0.50
2023-04-01T10:10:32.803Z,0.37
2023-04-01T10:13:31.914Z,0.60
2023-04-01T10:16:32.413Z,0.60
2023-04-01T10:19:41.417Z,0.53
2023-04-01T10:22:34.946Z,0.37
2023-04-01T10:25:50.828Z,1.10
2023-04-01T10:29:13.433Z,0.60
2023-04-01T10:32:37.566Z,0.43
2023-04-01T10:35:44.871Z,0.60
2023-04-01T10:38:54.889Z,0.77
2023-04-01T10:42:13.880Z,0.73
2023-04-01T10:44:58.814Z,0.50
2023-04-01T10:48:16.920Z,0.47
2023-04-01T10:51:40.070Z,0.50
2023-04-01T10:54:48.679Z,0.47
2023-04-01T10:58:15.470Z,0.30
2023-04-01T11:01:39.375Z,0.40
2023-04-01T11:04:49.660Z,0.63
2023-04-01T11:08:06.490Z,0.50
2023-04-01T11:11:37.945Z,0.67
2023-04-01T11:14:29.700Z,0.60
2023-04-01T11:17:43.341Z,0.60
2023-04-01T11:20:37.754Z,0.40
2023-04-01T11:23:31.799Z,0.50
2023-04-01T11:26:42.677Z,0.27
2023-04-01T11:30:06.655Z,0.40
2023-04-01T11:33:21.015Z,0.60
2023-04-01T11:36:21.045Z,0.40
2023-04-01T11:39:31.158Z,0.43
2023-04-01T11:42:36.148Z,0.50
2023-04-01T11:46:17.470Z,0.60
2023-04-01T11:49:37.116Z,0.60
2023-04-01T11:52:56.973Z,0.57
2023-04-01T11:56:00.301Z,0.50
2023-04-01T11:59:18.999Z,0.30
2023-04-01T12:02:13.239Z,0.30
2023-04-01T12:05:08.848Z,0.50
2023-04-01T12:08:04.112Z,0.33
2023-04-01T12:11:04.924Z,0.60
2023-04-01T12:14:19.899Z,0.67
2023-04-01T12:17:16.517Z,1.00
2023-04-01T12:20:13.678Z,0.70
2023-04-01T12:23:22.547Z,0.80
2023-04-01T12:26:17.072Z,0.60
2023-04-01T12:29:10.469Z,0.90
2023-04-01T12:32:10.655Z,0.80
2023-04-01T12:35:14.051Z,0.70
2023-04-01T12:38:36.919Z,0.50
2023-04-01T12:41:39.933Z,0.97
2023-04-01T12:44:28.146Z,0.60
2023-04-01T12:47:28.102Z,0.50
2023-04-01T12:50:52.608Z,0.70
2023-04-01T12:53:56.489Z,0.40
2023-04-01T12:57:13.809Z,0.70
2023-04-01T13:00:39.336Z,0.70
2023-04-01T13:03:35.812Z,0.40
2023-04-01T13:07:02.498Z,0.70
2023-04-01T13:10:25.559Z,0.50
2023-04-01T13:13:32.376Z,0.60
2023-04-01T13:16:22.281Z,0.63
2023-04-01T13:19:13.372Z,0.67
2023-04-01T13:22:16.113Z,0.50
2023-04-01T13:25:06.639Z,0.53
2023-04-01T13:28:06.443Z,0.70
2023-04-01T13:31:13.101Z,0.40
2023-04-01T13:34:35.434Z,0.80
2023-04-01T13:37:54.082Z,0.60
2023-04-01T13:41:03.432Z,0.53
2023-04-01T13:43:59.351Z,0.90
2023-04-01T13:47:08.693Z,0.53
2023-04-01T13:50:18.600Z,0.40
2023-04-01T13:53:34.356Z,0.60
2023-04-01T13:56:35.692Z,0.63
2023-04-01T13:59:32.549Z,0.57
2023-04-01T14:02:56.214Z,0.60
2023-04-01T14:06:03.442Z,0.60
2023-04-01T14:09:05.051Z,0.37
2023-04-01T14:12:22.298Z,0.57
2023-04-01T14:15:39.852Z,0.80
2023-04-01T14:18:39.187Z,0.50
2023-04-01T14:21:37.207Z,0.60
2023-04-01T14:24:58.064Z,0.60
2023-04-01T14:28:01.920Z,1.17
2023-04-01T14:30:57.284Z,0.83
2023-04-01T14:33:42.649Z,0.80
2023-04-01T14:37:13.898Z,0.50
2023-04-01T14:40:30.062Z,0.73
2023-04-01T14:43:43.558Z,0.77
2023-04-01T14:46:59.768Z,0.60
2023-04-01T14:49:50.432Z,0.80
2023-04-01T14:52:40.481Z,0.83
2023-04-01T14:55:28.707Z,0.80
2023-04-01T14:58:19.295Z,0.60
2023-04-01T15:01:07.192Z,0.83
2023-04-01T15:04:26.658Z,0.83
2023-04-01T15:07:49.929Z,0.97
2023-04-01T15:11:05.294Z,0.50
2023-04-01T15:14:18.182Z,0.80
2023-04-01T15:17:40.636Z,0.57
2023-04-01T15:20:42.042Z,0.47
2023-04-01T15:23:58.184Z,0.77
2023-04-01T15:27:04.805Z,0.90
2023-04-01T15:30:05.538Z,0.90
2023-04-01T15:33:18.250Z,0.50
2023-04-01T15:36:36.716Z,0.90
2023-04-01T15:39:37.971Z,1.20
2023-04-01T15:42:35.573Z,1.67
2023-04-01T15:45:35.963Z,1.33
2023-04-01T15:48:41.696Z,1.17
2023-04-01T15:51:41.853Z,1.20
2023-04-01T15:54:35.868Z,1.03
2023-04-01T15:57:29.669Z,0.90
2023-04-01T16:00:17.989Z,0.50
2023-04-01T16:03:24.197Z,0.87
2023-04-01T16:06:09.460Z,0.80
2023-04-01T16:09:16.601Z,1.10
2023-04-01T16:12:19.543Z,0.87
2023-04-01T16:15:21.037Z,1.00
2023-04-01T16:18:25.734Z,0.70
2023-04-01T16:22:01.713Z,0.93
2023-04-01T16:25:21.387Z,1.00
2023-04-01T16:28:33.916Z,0.90
2023-04-01T16:31:28.311Z,0.90
2023-04-01T16:34:22.332Z,0.80
2023-04-01T16:37:17.038Z,1.00
2023-04-01T16:40:12.026Z,0.70
2023-04-01T16:43:17.038Z,0.70
2023-04-01T16:46:29.768Z,1.00
2023-04-01T16:49:33.016Z,0.60
2023-04-01T16:52:44.336Z,0.73
2023-04-01T16:56:02.665Z,0.80
2023-04-01T16:59:04.124Z,0.90
2023-04-01T17:02:12.695Z,0.97
2023-04-01T17:05:16.479Z,0.77
2023-04-01T17:08:08.783Z,0.90
2023-04-01T17:11:01.211Z,0.60
2023-04-01T17:14:18.700Z,1.00
2023-04-01T17:17:22.932Z,0.87
2023-04-01T17:20:27.298Z,0.70
2023-04-01T17:23:20.997Z,0.60
2023-04-01T17:26:33.816Z,0.63
2023-04-01T17:29:33.950Z,0.67
2023-04-01T17:32:42.696Z,0.70
2023-04-01T17:35:33.697Z,0.67
2023-04-01T17:38:52.850Z,0.60
2023-04-01T17:41:40.907Z,0.60
2023-04-01T17:44:29.667Z,0.50
2023-04-01T17:47:25.916Z,0.90
2023-04-01T17:50:21.638Z,0.50
2023-04-01T17:53:51.878Z,0.73
2023-04-01T17:56:50.615Z,0.70
2023-04-01T17:59:57.770Z,0.50
2023-04-01T18:02:57.980Z,0.73
2023-04-01T18:05:46.406Z,0.50
2023-04-01T18:08:40.528Z,0.70
2023-04-01T18:12:06.231Z,0.90
2023-04-01T18:15:17.576Z,0.80
2023-04-01T18:18:30.741Z,0.37
2023-04-01T18:21:27.312Z,0.60
2023-04-01T18:24:31.636Z,0.50
2023-04-01T18:27:22.078Z,0.70
2023-04-01T18:30:21.322Z,0.60
2023-04-01T18:33:17.635Z,0.70
2023-04-01T18:36:20.573Z,0.67
2023-04-01T18:39:13.950Z,0.60
2023-04-01T18:42:11.965Z,1.10
2023-04-01T18:45:20.310Z,0.73
2023-04-01T18:48:44.970Z,0.80
2023-04-01T18:51:54.683Z,0.70
2023-04-01T18:55:01.279Z,0.90
2023-04-01T18:58:00.675Z,0.63
2023-04-01T19:00:53.711Z,0.70
2023-04-01T19:03:57.930Z,0.77
2023-04-01T19:06:51.517Z,1.17
2023-04-01T19:09:49.454Z,0.70
2023-04-01T19:12:59.209Z,0.60
2023-04-01T19:15:48.607Z,0.60
2023-04-01T19:18:53.645Z,0.60
2023-04-01T19:21:44.447Z,0.67
2023-04-01T19:24:54.658Z,0.80
2023-04-01T19:27:47.749Z,0.60
2023-04-01T19:30:51.257Z,0.63
2023-04-01T19:33:39.142Z,0.90
2023-04-01T19:36:44.246Z,0.70
2023-04-01T19:39:53.497Z,0.50
2023-04-01T19:42:57.266Z,0.90
2023-04-01T19:45:50.577Z,0.60
2023-04-01T19:48:49.407Z,0.67
2023-04-01T19:51:53.542Z,0.50
2023-04-01T19:54:57.254Z,0.70
2023-04-01T19:58:01.110Z,0.60
2023-04-01T20:00:52.888Z,0.73
2023-04-01T20:03:59.017Z,0.73
2023-04-01T20:06:53.472Z,0.73
2023-04-01T20:09:51.992Z,0.90
2023-04-01T20:12:53.370Z,0.63
2023-04-01T20:15:45.596Z,0.90
2023-04-01T20:18:52.833Z,0.47
2023-04-01T20:21:46.769Z,0.90
2023-04-01T20:24:38.013Z,0.63
2023-04-01T20:27:55.738Z,0.57
2023-04-01T20:30:54.673Z,0.70
2023-04-01T20:33:58.941Z,0.60
2023-04-01T20:36:50.183Z,0.60
2023-04-01T20:39:59.189Z,0.60
2023-04-01T20:43:03.489Z,0.70
2023-04-01T20:45:59.867Z,0.90
2023-04-01T20:48:54.148Z,0.60
2023-04-01T20:51:44.308Z,0.67
2023-04-01T20:54:48.250Z,0.90
2023-04-01T20:57:41.404Z,0.87
2023-04-01T21:00:42.580Z,0.80
2023-04-01T21:03:39.197Z,0.87
2023-04-01T21:06:44.428Z,0.87
2023-04-01T21:10:11.757Z,1.00
2023-04-01T21:13:15.201Z,0.60
2023-04-01T21:16:09.118Z,1.00
2023-04-01T21:19:23.857Z,0.73
2023-04-01T21:22:23.823Z,1.00
2023-04-01T21:25:37.303Z,1.00
2023-04-01T21:28:36.697Z,0.90
2023-04-01T21:31:49.803Z,0.90
2023-04-01T21:34:50.735Z,0.63
2023-04-01T21:37:56.227Z,1.30
2023-04-01T21:41:00.151Z,0.97
2023-04-01T21:43:55.420Z,1.00
2023-04-01T21:47:09.303Z,1.27
2023-04-01T21:50:06.616Z,1.30
2023-04-01T21:53:20.360Z,1.03
2023-04-01T21:56:50.922Z,1.30
2023-04-01T21:59:54.649Z,1.10
2023-04-01T22:02:49.510Z,1.33
2023-04-01T22:05:38.135Z,0.90
2023-04-01T22:08:27.347Z,1.00
2023-04-01T22:11:22.835Z,1.00
2023-04-01T22:14:32.418Z,1.00
2023-04-01T22:17:33.773Z,1.20
2023-04-01T22:20:25.249Z,1.30
2023-04-01T22:23:13.158Z,1.43
2023-04-01T22:26:07.614Z,1.40
2023-04-01T22:29:08.825Z,1.20
2023-04-01T22:32:03.695Z,1.30
2023-04-01T22:35:04.055Z,1.10
2023-04-01T22:38:12.542Z,1.17
2023-04-01T22:41:13.286Z,1.10
2023-04-01T22:43:59.008Z,1.20
2023-04-01T22:47:01.721Z,1.30
2023-04-01T22:50:09.238Z,1.10
2023-04-01T22:53:15.697Z,1.10
2023-04-01T22:56:06.101Z,1.47
2023-04-01T22:59:14.915Z,1.10
2023-04-01T23:02:06.713Z,1.30
2023-04-01T23:04:58.363Z,1.00
2023-04-01T23:07:57.110Z,1.30
2023-04-01T23:10:48.478Z,1.13
2023-04-01T23:13:39.895Z,1.23
2023-04-01T23:16:32.771Z,1.20
2023-04-01T23:19:38.910Z,1.10
2023-04-01T23:22:44.623Z,1.20
2023-04-01T23:25:41.415Z,1.30
2023-04-01T23:28:43.884Z,1.10
2023-04-01T23:31:38.292Z,1.27
2023-04-01T23:34:29.084Z,1.10
2023-04-01T23:37:17.093Z,1.10
2023-04-01T23:40:02.119Z,1.23
2023-04-01T23:42:47.377Z,0.97
2023-04-01T23:45:33.039Z,1.30
2023-04-01T23:48:24.595Z,0.90
2023-04-01T23:51:23.937Z,1.20
2023-04-01T23:54:18.902Z,1.30
2023-04-01T23:57:07.563Z,1.03
